Time;durP1;ratioP1;P1;durP2;ratioP2;P2;SDS_P1;SDS_P2;PMS_P1;PMS_P2;Temp;Humidity;BMP_temperature;BMP_pressure;BME280_temperature;BME280_humidity;BME280_pressure;Samples;Min_cycle;Max_cycle;Signal;HPM_P1;HPM_P2
2022/10/03 00:01:28;;;;;;;13.82;2.03;;;12.10;99.90;;;;;;5113205;27;37193;-59
2022/10/03 00:04:09;;;;;;;10.63;2.08;;;12.10;99.90;;;;;;5107682;27;38482;-59
2022/10/03 00:06:48;;;;;;;13.60;2.17;;;12.10;99.90;;;;;;5114490;27;38691;-59
2022/10/03 00:09:32;;;;;;;12.88;2.25;;;12.10;99.90;;;;;;5113610;27;37875;-59
2022/10/03 00:12:12;;;;;;;12.15;1.88;;;12.10;99.90;;;;;;5114680;27;38360;-59
2022/10/03 00:14:53;;;;;;;7.22;1.50;;;12.10;99.90;;;;;;5114177;27;36358;-59
2022/10/03 00:17:25;;;;;;;9.63;1.73;;;12.10;99.90;;;;;;5113056;27;37574;-59
2022/10/03 00:20:02;;;;;;;8.27;1.50;;;12.10;99.90;;;;;;5113901;27;38422;-59
2022/10/03 00:22:41;;;;;;;12.18;2.17;;;12.00;99.90;;;;;;5114139;27;36401;-59
2022/10/03 00:25:33;;;;;;;15.98;2.92;;;12.10;99.90;;;;;;5112806;27;39863;-59
2022/10/03 00:28:17;;;;;;;12.88;2.08;;;12.20;99.90;;;;;;5114124;27;39163;-59
2022/10/03 00:30:57;;;;;;;9.23;1.77;;;12.20;99.90;;;;;;5113643;27;38165;-59
2022/10/03 00:33:33;;;;;;;10.65;1.90;;;12.20;99.90;;;;;;5112779;27;37278;-58
2022/10/03 00:36:07;;;;;;;12.65;2.83;;;12.30;99.90;;;;;;5112997;27;37899;-59
2022/10/03 00:39:02;;;;;;;11.45;2.22;;;12.30;99.90;;;;;;5113413;27;37609;-59
2022/10/03 00:42:00;;;;;;;13.00;2.25;;;12.30;99.90;;;;;;5112083;27;38102;-59
2022/10/03 00:45:13;;;;;;;10.52;1.88;;;12.40;99.90;;;;;;5112455;27;35443;-59
2022/10/03 00:47:53;;;;;;;11.43;1.80;;;12.40;99.90;;;;;;5111223;27;37677;-59
2022/10/03 00:50:36;;;;;;;10.80;1.58;;;12.40;99.90;;;;;;5111924;27;37740;-59
2022/10/03 00:53:22;;;;;;;11.17;1.73;;;12.40;99.90;;;;;;5112741;27;36139;-59
2022/10/03 00:56:02;;;;;;;9.20;1.73;;;12.40;99.90;;;;;;5113593;27;35994;-59
2022/10/03 00:58:43;;;;;;;14.02;2.05;;;12.40;99.90;;;;;;5113142;27;37042;-59
2022/10/03 01:01:35;;;;;;;11.57;1.85;;;12.40;99.90;;;;;;5113667;27;39450;-59
2022/10/03 01:04:28;;;;;;;10.43;1.60;;;12.40;99.90;;;;;;5113292;27;37504;-59
2022/10/03 01:07:05;;;;;;;8.02;1.60;;;12.40;99.90;;;;;;5110615;27;37577;-59
2022/10/03 01:09:59;;;;;;;15.50;2.25;;;12.40;99.90;;;;;;5114286;27;36556;-59
2022/10/03 01:12:46;;;;;;;13.07;2.22;;;12.40;99.90;;;;;;5113983;27;37670;-59
2022/10/03 01:15:27;;;;;;;8.32;1.52;;;12.40;99.90;;;;;;5112315;27;36313;-59
2022/10/03 01:18:11;;;;;;;11.07;2.03;;;12.40;99.90;;;;;;5112614;27;35472;-59
2022/10/03 01:20:49;;;;;;;6.43;1.38;;;12.40;99.90;;;;;;5113104;27;38917;-60
2022/10/03 01:23:49;;;;;;;8.55;1.27;;;12.40;99.90;;;;;;5113925;27;37875;-59
2022/10/03 01:26:45;;;;;;;12.90;2.38;;;12.40;99.90;;;;;;5089111;27;37856;-59
2022/10/03 01:32:10;;;;;;;11.88;1.90;;;12.40;99.90;;;;;;5111179;27;38538;-59
2022/10/03 01:34:47;;;;;;;8.43;1.93;;;12.30;99.90;;;;;;5113779;27;39590;-59
2022/10/03 01:37:23;;;;;;;8.85;1.42;;;12.30;99.90;;;;;;5112970;27;37404;-59
2022/10/03 01:39:56;;;;;;;16.67;2.83;;;12.30;99.90;;;;;;5112997;27;36539;-59
2022/10/03 01:42:30;;;;;;;;;;;12.30;99.90;;;;;;5114915;27;37709;-59
2022/10/03 01:45:11;;;;;;;11.07;1.70;;;12.30;99.90;;;;;;5114125;27;38505;-59
2022/10/03 01:47:50;;;;;;;8.27;1.75;;;12.20;99.90;;;;;;5113983;27;38506;-59
2022/10/03 01:50:25;;;;;;;14.10;2.08;;;12.20;99.90;;;;;;5114318;27;35405;-59
2022/10/03 01:53:00;;;;;;;10.93;2.00;;;12.30;99.90;;;;;;5113439;27;37814;-59
2022/10/03 01:55:35;;;;;;;8.90;1.70;;;12.20;99.90;;;;;;5114595;27;37809;-59
2022/10/03 01:58:08;;;;;;;14.63;2.13;;;12.30;99.90;;;;;;5113172;27;38469;-59
2022/10/03 02:00:51;;;;;;;9.82;1.67;;;12.30;99.90;;;;;;5113161;27;36781;-59
2022/10/03 02:03:23;;;;;;;14.85;2.20;;;12.30;99.90;;;;;;5113660;27;37688;-59
2022/10/03 02:05:59;;;;;;;11.63;2.45;;;12.30;99.90;;;;;;5113007;27;36550;-59
2022/10/03 02:08:43;;;;;;;12.45;2.25;;;12.40;99.90;;;;;;5113172;27;38327;-59
2022/10/03 02:11:22;;;;;;;12.75;2.05;;;12.40;99.90;;;;;;5111616;27;37212;-59
2022/10/03 02:13:57;;;;;;;12.15;1.90;;;12.40;99.90;;;;;;5114046;27;36986;-59
2022/10/03 02:16:39;;;;;;;7.25;1.90;;;12.40;99.90;;;;;;5114022;27;37761;-59
2022/10/03 02:19:17;;;;;;;15.10;2.85;;;12.40;99.90;;;;;;5113654;27;39692;-59
2022/10/03 02:21:49;;;;;;;13.40;1.90;;;12.40;99.90;;;;;;5114282;27;36643;-59
2022/10/03 02:24:41;;;;;;;10.13;1.52;;;12.40;99.90;;;;;;5113561;27;36394;-59
2022/10/03 02:27:51;;;;;;;13.60;1.90;;;12.40;99.90;;;;;;5113464;27;36919;-59
2022/10/03 02:30:21;;;;;;;10.15;2.60;;;12.40;99.90;;;;;;5078159;27;38515;-59
2022/10/03 02:33:26;;;;;;;10.13;2.03;;;12.40;99.90;;;;;;5112508;27;36370;-59
2022/10/03 02:36:38;;;;;;;9.88;1.55;;;12.40;99.90;;;;;;5113383;27;38481;-59
2022/10/03 02:39:37;;;;;;;10.07;2.00;;;12.40;99.90;;;;;;5113325;27;37859;-59
2022/10/03 02:42:46;;;;;;;10.45;2.10;;;12.40;99.90;;;;;;5107219;27;37450;-59
2022/10/03 02:45:46;;;;;;;10.88;1.92;;;12.40;99.90;;;;;;5111618;27;38826;-59
2022/10/03 02:48:43;;;;;;;9.30;1.90;;;12.40;99.90;;;;;;5108392;27;38650;-59
2022/10/03 02:51:42;;;;;;;11.48;1.50;;;12.40;99.90;;;;;;5107361;27;37631;-59
2022/10/03 02:54:42;;;;;;;12.88;2.08;;;12.40;99.90;;;;;;5112796;27;38158;-59
2022/10/03 02:57:38;;;;;;;9.07;1.50;;;12.50;99.90;;;;;;5094922;27;35425;-59
2022/10/03 03:00:12;;;;;;;12.05;1.95;;;12.50;99.90;;;;;;5111484;27;38150;-59
2022/10/03 03:03:12;;;;;;;13.07;1.92;;;12.50;99.90;;;;;;5111900;27;36468;-59
2022/10/03 03:06:23;;;;;;;10.43;1.83;;;12.50;99.90;;;;;;5113276;27;37712;-59
2022/10/03 03:09:45;;;;;;;8.88;1.58;;;12.50;99.90;;;;;;5113502;27;37077;-59
2022/10/03 03:12:51;;;;;;;11.40;1.73;;;12.50;99.90;;;;;;5112027;27;37235;-59
2022/10/03 03:16:12;;;;;;;13.95;2.00;;;12.60;99.90;;;;;;5098120;27;38419;-59
2022/10/03 03:18:44;;;;;;;11.23;1.95;;;12.50;99.90;;;;;;5113358;27;37074;-59
2022/10/03 03:21:26;;;;;;;10.23;1.65;;;12.50;99.90;;;;;;5113271;27;35198;-59
2022/10/03 03:24:14;;;;;;;12.32;2.33;;;12.60;99.90;;;;;;5112477;27;38663;-59
2022/10/03 03:27:04;;;;;;;10.98;2.08;;;12.60;99.90;;;;;;5093068;27;36670;-59
2022/10/03 03:29:43;;;;;;;11.80;2.30;;;12.60;99.90;;;;;;5113670;27;36190;-59
2022/10/03 03:32:19;;;;;;;13.55;1.67;;;12.60;99.90;;;;;;5112160;27;38026;-59
2022/10/03 03:34:54;;;;;;;9.35;1.35;;;12.60;99.90;;;;;;5112689;27;36383;-59
2022/10/03 03:37:39;;;;;;;9.88;1.60;;;12.60;99.90;;;;;;5112560;27;38921;-59
2022/10/03 03:40:28;;;;;;;10.50;1.75;;;12.60;99.90;;;;;;5113275;27;37128;-59
2022/10/03 03:43:15;;;;;;;11.27;1.95;;;12.50;99.90;;;;;;5113454;27;37845;-59
2022/10/03 03:45:53;;;;;;;9.88;1.63;;;12.60;99.90;;;;;;5112306;27;37691;-59
2022/10/03 03:48:43;;;;;;;10.98;1.60;;;12.60;99.90;;;;;;5112820;27;38000;-59
2022/10/03 03:51:21;;;;;;;12.20;1.80;;;12.60;99.90;;;;;;5113544;27;37336;-59
2022/10/03 03:54:22;;;;;;;11.38;2.20;;;12.60;99.90;;;;;;5112503;27;36334;-59
2022/10/03 03:57:16;;;;;;;8.98;1.70;;;12.60;99.90;;;;;;5114046;27;37713;-59
2022/10/03 04:00:06;;;;;;;11.88;2.05;;;12.60;99.90;;;;;;5075470;27;38371;-59
2022/10/03 04:02:45;;;;;;;14.65;2.05;;;12.60;99.90;;;;;;5114038;27;38007;-59
2022/10/03 04:05:23;;;;;;;8.63;1.60;;;12.60;99.90;;;;;;5116031;27;36787;-59
2022/10/03 04:08:11;;;;;;;10.63;1.85;;;12.60;99.90;;;;;;5116711;27;40654;-59
2022/10/03 04:11:01;;;;;;;16.73;2.80;;;12.60;99.90;;;;;;5115018;27;39064;-59
2022/10/03 04:13:59;;;;;;;13.73;2.92;;;12.60;99.90;;;;;;5115434;27;36224;-59
2022/10/03 04:19:41;;;;;;;8.90;1.92;;;12.50;99.90;;;;;;5116522;27;41582;-59
2022/10/03 04:22:18;;;;;;;13.45;2.17;;;12.50;99.90;;;;;;5116112;27;37333;-59
2022/10/03 04:25:06;;;;;;;6.57;1.77;;;12.50;99.90;;;;;;5115274;27;37510;-59
2022/10/03 04:27:59;;;;;;;10.25;1.90;;;12.50;99.90;;;;;;5115613;27;36478;-59
2022/10/03 04:30:34;;;;;;;12.57;2.40;;;12.50;99.90;;;;;;5115907;27;38203;-59
2022/10/03 04:33:25;;;;;;;8.82;2.20;;;12.50;99.90;;;;;;5114744;27;39071;-59
2022/10/03 04:36:29;;;;;;;7.63;1.58;;;12.50;99.90;;;;;;5112699;27;38255;-59
2022/10/03 04:39:01;;;;;;;;;;;12.50;99.90;;;;;;5116407;27;37313;-59
2022/10/03 04:41:39;;;;;;;11.52;1.88;;;12.50;99.90;;;;;;5114037;27;40030;-59
2022/10/03 04:44:21;;;;;;;12.27;2.15;;;12.50;99.90;;;;;;5115408;27;37748;-59
2022/10/03 04:46:54;;;;;;;9.93;2.75;;;12.50;99.90;;;;;;5114967;27;36210;-59
2022/10/03 04:49:31;;;;;;;9.23;1.85;;;12.50;99.90;;;;;;5115953;27;35990;-59
2022/10/03 04:52:02;;;;;;;8.45;2.03;;;12.50;99.90;;;;;;5112595;27;39371;-59
2022/10/03 04:54:47;;;;;;;9.90;2.28;;;12.50;99.90;;;;;;5116046;27;38213;-59
2022/10/03 04:57:25;;;;;;;9.80;2.03;;;12.50;99.90;;;;;;5115239;27;37486;-59
2022/10/03 04:59:59;;;;;;;13.80;2.40;;;12.40;99.90;;;;;;5114155;27;36601;-59
2022/10/03 05:02:44;;;;;;;9.73;1.80;;;12.40;99.90;;;;;;5114101;27;38300;-59
2022/10/03 05:05:42;;;;;;;8.40;1.90;;;12.40;99.90;;;;;;5113556;27;36714;-59
2022/10/03 05:08:21;;;;;;;8.68;1.75;;;12.40;99.90;;;;;;5114369;27;38145;-59
2022/10/03 05:10:57;;;;;;;13.35;1.80;;;12.30;99.90;;;;;;5114676;27;36751;-59
2022/10/03 05:13:38;;;;;;;7.78;1.63;;;12.20;99.90;;;;;;5113564;27;37434;-59
2022/10/03 05:16:15;;;;;;;8.73;1.83;;;12.20;99.90;;;;;;5115347;27;37443;-59
2022/10/03 05:18:47;;;;;;;7.40;2.10;;;12.20;99.90;;;;;;5113589;27;37370;-58
2022/10/03 05:21:26;;;;;;;14.30;2.95;;;12.10;99.90;;;;;;5114189;27;36475;-58
2022/10/03 05:24:03;;;;;;;9.80;1.73;;;12.10;99.90;;;;;;5113493;27;37493;-59
2022/10/03 05:26:44;;;;;;;8.07;1.52;;;12.00;99.90;;;;;;5115214;27;38874;-59
2022/10/03 05:29:20;;;;;;;15.60;2.65;;;11.90;99.90;;;;;;5113504;27;38621;-58
2022/10/03 05:31:56;;;;;;;9.30;1.70;;;11.90;99.90;;;;;;5112770;27;36495;-59
2022/10/03 05:34:34;;;;;;;12.55;2.53;;;11.90;99.90;;;;;;5112428;27;37450;-58
2022/10/03 05:37:23;;;;;;;8.98;1.70;;;11.80;99.90;;;;;;5114821;27;38868;-59
2022/10/03 05:39:58;;;;;;;10.05;1.60;;;11.80;99.90;;;;;;5115803;27;37238;-59
2022/10/03 05:42:39;;;;;;;11.25;1.63;;;11.80;99.90;;;;;;5112154;27;36558;-59
2022/10/03 05:45:23;;;;;;;7.35;1.60;;;11.80;99.90;;;;;;5114858;27;37281;-59
2022/10/03 05:47:55;;;;;;;7.78;1.25;;;11.70;99.90;;;;;;5114336;27;37748;-58
2022/10/03 05:50:41;;;;;;;10.93;1.73;;;11.70;99.90;;;;;;5112628;27;36825;-59
2022/10/03 05:53:43;;;;;;;13.02;2.28;;;11.70;99.90;;;;;;5112663;27;37358;-58
2022/10/03 05:56:23;;;;;;;11.80;1.63;;;11.70;99.90;;;;;;5108805;27;40032;-59
2022/10/03 05:59:23;;;;;;;8.32;2.15;;;11.70;99.90;;;;;;5114211;27;38907;-59
2022/10/03 06:02:09;;;;;;;6.47;1.73;;;11.70;99.90;;;;;;5112757;27;39006;-59
2022/10/03 06:05:01;;;;;;;11.57;2.05;;;11.70;99.90;;;;;;5114322;27;36378;-59
2022/10/03 06:07:33;;;;;;;10.07;1.80;;;11.70;99.90;;;;;;5110943;27;37616;-59
2022/10/03 06:10:33;;;;;;;12.10;2.35;;;11.70;99.90;;;;;;5113087;27;38409;-58
2022/10/03 06:13:14;;;;;;;8.30;1.90;;;11.80;99.90;;;;;;5114571;27;36449;-58
2022/10/03 06:15:55;;;;;;;11.20;1.80;;;11.80;99.90;;;;;;5113995;27;36828;-59
2022/10/03 06:18:52;;;;;;;7.07;1.20;;;11.80;99.90;;;;;;5114554;27;38124;-59
2022/10/03 06:21:45;;;;;;;12.13;1.38;;;11.90;99.90;;;;;;5114395;27;37840;-58
2022/10/03 06:24:57;;;;;;;12.50;1.88;;;11.90;99.90;;;;;;5114130;27;39824;-59
2022/10/03 06:27:57;;;;;;;8.90;1.48;;;11.90;99.90;;;;;;5112842;27;36335;-58
2022/10/03 06:30:45;;;;;;;7.65;1.33;;;12.00;99.90;;;;;;5104192;27;37300;-59
2022/10/03 06:33:52;;;;;;;4.93;1.20;;;12.10;99.90;;;;;;5113076;27;37681;-59
2022/10/03 06:36:37;;;;;;;11.40;1.70;;;12.10;99.90;;;;;;5075757;27;38676;-59
2022/10/03 06:39:44;;;;;;;12.00;1.63;;;12.10;99.90;;;;;;5113520;27;35371;-59
2022/10/03 06:42:48;;;;;;;9.50;1.58;;;12.20;99.90;;;;;;5103794;27;37610;-59
2022/10/03 06:46:05;;;;;;;11.02;2.13;;;12.20;99.90;;;;;;5113131;27;39228;-58
2022/10/03 06:49:20;;;;;;;7.57;1.50;;;12.20;99.90;;;;;;5113675;27;37907;-59
2022/10/03 06:52:15;;;;;;;8.95;1.25;;;12.30;99.90;;;;;;5113752;27;37661;-59
2022/10/03 06:55:13;;;;;;;6.40;1.25;;;12.30;99.90;;;;;;5112683;27;38158;-59
2022/10/03 06:58:13;;;;;;;8.57;1.77;;;12.30;99.90;;;;;;5113792;27;38763;-58
2022/10/03 07:00:54;;;;;;;7.38;1.52;;;12.40;99.90;;;;;;5114182;27;38504;-59
2022/10/03 07:03:52;;;;;;;10.63;2.40;;;12.40;99.90;;;;;;5112858;27;36524;-58
2022/10/03 07:07:02;;;;;;;11.20;1.77;;;12.50;99.90;;;;;;5113916;27;38986;-59
2022/10/03 07:10:03;;;;;;;10.70;1.80;;;12.50;99.90;;;;;;5089211;27;36705;-59
2022/10/03 07:12:58;;;;;;;16.58;3.13;;;12.60;99.90;;;;;;5090054;27;36102;-58
2022/10/03 07:15:48;;;;;;;6.55;1.55;;;12.60;99.90;;;;;;5110759;27;37349;-59
2022/10/03 07:18:52;;;;;;;10.82;1.80;;;12.60;99.90;;;;;;5113478;27;36940;-59
2022/10/03 07:22:01;;;;;;;9.90;2.13;;;12.70;99.90;;;;;;5112661;27;37912;-59
2022/10/03 07:25:10;;;;;;;8.35;1.80;;;12.70;99.90;;;;;;5110975;27;38063;-59
2022/10/03 07:27:52;;;;;;;6.40;1.55;;;12.80;99.90;;;;;;5114318;27;37008;-59
2022/10/03 07:30:21;;;;;;;10.50;2.13;;;12.80;99.90;;;;;;5116937;27;36431;-58
2022/10/03 07:33:24;;;;;;;10.45;1.80;;;12.90;99.90;;;;;;5114660;27;37474;-59
2022/10/03 07:39:35;;;;;;;;;;;13.00;99.90;;;;;;5116677;27;37234;-58
2022/10/03 07:42:34;;;;;;;5.65;1.30;;;13.00;99.90;;;;;;5117215;27;37294;-59
2022/10/03 07:45:13;;;;;;;8.60;1.45;;;13.10;99.90;;;;;;5116228;27;37984;-59
2022/10/03 07:48:12;;;;;;;11.95;1.98;;;13.10;99.90;;;;;;5116720;27;37206;-59
2022/10/03 07:50:56;;;;;;;9.20;1.60;;;13.20;99.90;;;;;;5116990;27;36503;-58
2022/10/03 07:54:05;;;;;;;11.95;1.52;;;13.20;99.90;;;;;;5116453;27;37643;-59
2022/10/03 07:57:02;;;;;;;10.15;1.63;;;13.30;99.90;;;;;;5116580;27;36836;-58
2022/10/03 07:59:59;;;;;;;8.52;1.67;;;13.40;99.90;;;;;;5094261;27;38154;-59
2022/10/03 08:02:50;;;;;;;7.43;1.50;;;13.40;99.90;;;;;;5116038;27;36052;-59
2022/10/03 08:05:26;;;;;;;10.75;1.88;;;13.50;99.90;;;;;;5075319;27;37473;-59
2022/10/03 08:08:22;;;;;;;8.18;1.55;;;13.50;99.90;;;;;;5115781;27;38433;-59
2022/10/03 08:11:21;;;;;;;14.65;2.42;;;13.60;99.90;;;;;;5116417;27;37320;-59
2022/10/03 08:14:08;;;;;;;14.60;2.30;;;13.60;99.90;;;;;;5116188;27;39470;-59
2022/10/03 08:17:06;;;;;;;11.25;1.65;;;13.70;99.90;;;;;;5115425;27;36347;-59
2022/10/03 08:19:57;;;;;;;8.88;1.63;;;13.70;99.90;;;;;;5116665;27;37780;-59
2022/10/03 08:22:44;;;;;;;7.75;1.38;;;13.80;99.90;;;;;;5116112;27;37103;-59
2022/10/03 08:25:27;;;;;;;9.82;1.73;;;13.90;99.90;;;;;;5116390;27;37234;-59
2022/10/03 08:28:22;;;;;;;9.35;1.88;;;13.90;99.90;;;;;;5116683;27;36486;-59
2022/10/03 08:31:12;;;;;;;10.05;1.67;;;14.00;99.90;;;;;;5113755;27;37776;-59
2022/10/03 08:34:10;;;;;;;9.05;2.13;;;14.10;99.90;;;;;;5114094;27;36180;-59
2022/10/03 08:37:06;;;;;;;9.52;2.13;;;14.20;99.90;;;;;;5116244;27;36708;-59
2022/10/03 08:39:52;;;;;;;12.95;1.85;;;14.20;99.90;;;;;;5115233;27;38235;-59
2022/10/03 08:42:51;;;;;;;9.35;1.65;;;14.30;99.90;;;;;;5114973;27;38807;-59
2022/10/03 08:45:57;;;;;;;13.35;1.83;;;14.40;99.90;;;;;;5115107;27;37217;-59
2022/10/03 08:48:49;;;;;;;8.43;1.92;;;14.40;99.90;;;;;;5091798;27;35383;-59
2022/10/03 08:51:49;;;;;;;10.07;1.98;;;14.50;99.90;;;;;;5091350;27;38033;-59
2022/10/03 08:54:52;;;;;;;13.27;1.98;;;14.60;99.90;;;;;;5112046;27;37705;-59
2022/10/03 08:57:51;;;;;;;7.40;1.58;;;14.70;99.90;;;;;;5080402;27;37674;-59
2022/10/03 09:00:21;;;;;;;8.63;1.60;;;14.70;99.90;;;;;;5115862;27;36581;-59
2022/10/03 09:03:15;;;;;;;9.27;1.75;;;14.80;99.90;;;;;;5115534;27;38209;-59
2022/10/03 09:06:26;;;;;;;16.35;2.05;;;14.80;99.90;;;;;;5115523;27;37626;-59
2022/10/03 09:09:26;;;;;;;8.32;1.42;;;14.90;99.90;;;;;;5114868;27;37696;-59
2022/10/03 09:12:22;;;;;;;9.75;1.50;;;15.00;99.90;;;;;;5115606;27;39065;-59
2022/10/03 09:15:24;;;;;;;8.00;1.48;;;15.00;99.90;;;;;;5114936;27;37950;-59
2022/10/03 09:18:26;;;;;;;13.70;1.67;;;15.10;99.90;;;;;;5115808;27;37614;-59
2022/10/03 09:21:30;;;;;;;7.78;1.58;;;15.10;99.90;;;;;;5114977;27;37499;-59
2022/10/03 09:24:27;;;;;;;9.50;1.30;;;15.10;99.90;;;;;;5114521;27;36750;-59
2022/10/03 09:27:23;;;;;;;9.98;2.22;;;15.20;99.90;;;;;;5114716;27;37557;-59
2022/10/03 09:30:23;;;;;;;7.65;1.63;;;15.30;99.90;;;;;;5115526;27;38370;-59
2022/10/03 09:33:22;;;;;;;10.30;2.20;;;15.40;99.90;;;;;;5114179;27;37336;-59
2022/10/03 09:36:03;;;;;;;8.23;1.23;;;15.50;99.90;;;;;;5114928;27;36032;-59
2022/10/03 09:39:01;;;;;;;11.07;1.75;;;15.50;99.90;;;;;;5113687;27;38443;-59
2022/10/03 09:41:52;;;;;;;6.57;1.30;;;15.60;99.90;;;;;;5115370;27;38856;-59
2022/10/03 09:44:48;;;;;;;7.07;1.30;;;15.60;99.90;;;;;;5115161;27;37107;-59
2022/10/03 09:47:57;;;;;;;9.20;1.63;;;15.70;99.90;;;;;;5095485;27;35326;-59
2022/10/03 09:50:54;;;;;;;6.43;1.70;;;15.80;99.90;;;;;;5114292;27;38429;-59
2022/10/03 09:53:52;;;;;;;9.70;1.90;;;15.90;99.90;;;;;;5114116;27;40955;-59
2022/10/03 09:56:49;;;;;;;6.35;1.65;;;15.90;99.90;;;;;;5114731;27;37447;-59
2022/10/03 09:59:33;;;;;;;9.20;1.40;;;16.00;99.90;;;;;;5115076;27;36624;-59
2022/10/03 10:02:29;;;;;;;7.15;1.23;;;16.00;99.90;;;;;;5113726;27;37586;-58
2022/10/03 10:05:35;;;;;;;11.75;1.50;;;16.10;99.90;;;;;;5094370;27;37691;-59
2022/10/03 10:08:29;;;;;;;11.30;1.85;;;16.20;99.90;;;;;;5076674;27;38102;-60
2022/10/03 10:11:12;;;;;;;6.65;1.17;;;16.30;99.90;;;;;;5112845;27;36517;-59
2022/10/03 10:14:28;;;;;;;7.63;1.13;;;16.30;99.90;;;;;;5113961;27;37680;-59
2022/10/03 10:17:52;;;;;;;7.03;1.92;;;16.40;99.90;;;;;;5112237;27;40216;-60
2022/10/03 10:20:53;;;;;;;5.55;1.77;;;16.40;99.90;;;;;;5115194;27;38224;-59
2022/10/03 10:23:45;;;;;;;8.73;1.70;;;16.40;99.90;;;;;;5112561;27;37218;-59
2022/10/03 10:26:52;;;;;;;6.07;1.00;;;16.50;99.90;;;;;;5112796;27;38533;-59
2022/10/03 10:30:04;;;;;;;6.43;1.23;;;16.60;99.90;;;;;;5095312;27;36587;-59
2022/10/03 10:33:13;;;;;;;10.73;1.65;;;16.50;99.90;;;;;;5112707;27;37930;-58
2022/10/03 10:36:09;;;;;;;10.07;1.58;;;16.60;99.90;;;;;;5113890;27;36710;-59
2022/10/03 10:39:39;;;;;;;7.30;1.42;;;16.60;99.90;;;;;;5112386;27;37653;-60
2022/10/03 10:42:50;;;;;;;4.80;1.27;;;16.60;99.90;;;;;;5069284;28;36655;-59
2022/10/03 10:45:45;;;;;;;5.90;1.40;;;16.60;99.90;;;;;;5113826;27;36225;-59
2022/10/03 10:49:07;;;;;;;7.80;2.13;;;16.70;99.90;;;;;;5113106;27;35362;-60
2022/10/03 10:52:03;;;;;;;7.70;1.27;;;16.70;99.90;;;;;;5076235;27;37639;-59
2022/10/03 10:55:17;;;;;;;9.10;1.25;;;16.80;99.90;;;;;;5113138;27;37783;-59
2022/10/03 10:58:38;;;;;;;6.40;1.00;;;16.80;99.90;;;;;;5113318;27;39269;-60
2022/10/03 11:02:00;;;;;;;9.95;1.30;;;16.90;99.90;;;;;;5112132;27;36733;-59
2022/10/03 11:05:06;;;;;;;5.53;1.27;;;17.00;99.90;;;;;;5119587;27;38110;-59
2022/10/03 11:08:19;;;;;;;4.25;1.30;;;17.10;99.90;;;;;;5110151;27;36502;-59
2022/10/03 11:11:03;;;;;;;5.90;1.00;;;17.10;99.90;;;;;;5103288;27;37056;-59
2022/10/03 11:14:13;;;;;;;8.52;1.20;;;17.20;99.90;;;;;;5119392;27;36085;-59
2022/10/03 11:17:34;;;;;;;8.15;1.40;;;17.20;99.90;;;;;;5109514;27;38143;-58
2022/10/03 11:20:51;;;;;;;6.97;1.10;;;17.20;99.90;;;;;;5054638;28;38546;-60
2022/10/03 11:23:55;;;;;;;8.35;1.50;;;17.10;99.90;;;;;;5120027;27;38239;-59
2022/10/03 11:26:41;;;;;;;;;;;17.20;99.90;;;;;;5120459;27;35919;-59
2022/10/03 11:29:57;;;;;;;6.47;0.98;;;17.20;99.90;;;;;;5118799;27;37557;-59
2022/10/03 11:32:54;;;;;;;4.85;1.48;;;17.20;99.90;;;;;;5119075;27;37807;-59
2022/10/03 11:35:53;;;;;;;4.20;1.02;;;17.20;99.90;;;;;;5119372;27;38099;-59
2022/10/03 11:38:24;;;;;;;7.07;1.83;;;17.20;99.90;;;;;;5118299;27;37011;-59
2022/10/03 11:41:03;;;;;;;6.72;1.10;;;17.20;99.90;;;;;;5117715;27;37679;-59
2022/10/03 11:44:06;;;;;;;6.03;1.63;;;17.30;99.90;;;;;;5118060;27;37570;-60
2022/10/03 11:46:57;;;;;;;8.00;1.10;;;17.30;99.90;;;;;;5118709;27;37916;-59
2022/10/03 11:49:49;;;;;;;7.13;1.10;;;17.30;99.90;;;;;;5118560;27;36625;-59
2022/10/03 11:52:30;;;;;;;6.57;1.10;;;17.30;99.90;;;;;;5119733;27;38431;-58
2022/10/03 11:55:21;;;;;;;5.75;1.30;;;17.20;99.90;;;;;;5119364;27;38009;-59
2022/10/03 11:57:59;;;;;;;7.82;1.25;;;17.30;99.90;;;;;;5119383;27;36308;-59
2022/10/03 12:00:31;;;;;;;6.38;1.00;;;17.30;99.90;;;;;;5118935;27;35450;-59
2022/10/03 12:03:19;;;;;;;8.32;1.20;;;17.40;99.90;;;;;;5118288;27;37623;-59
2022/10/03 12:08:53;;;;;;;6.13;1.15;;;17.40;99.90;;;;;;5118798;27;38633;-59
2022/10/03 12:08:58;;;;;;;11.02;1.45;;;17.50;99.90;;;;;;5118034;27;38034;-59
2022/10/03 12:11:28;;;;;;;5.93;0.95;;;17.50;99.90;;;;;;5117824;27;36519;-59
2022/10/03 12:14:23;;;;;;;4.90;0.80;;;17.60;99.90;;;;;;5117180;27;37584;-59
2022/10/03 12:17:05;;;;;;;7.50;1.50;;;17.50;99.90;;;;;;5113745;27;37628;-59
2022/10/03 12:19:41;;;;;;;7.97;1.85;;;17.50;99.90;;;;;;5114527;27;37495;-59
2022/10/03 12:22:25;;;;;;;7.05;1.50;;;17.40;99.90;;;;;;5113871;27;40178;-60
2022/10/03 12:24:57;;;;;;;5.05;0.82;;;17.30;99.90;;;;;;5114125;27;36977;-59
2022/10/03 12:27:31;;;;;;;4.38;0.95;;;17.20;99.90;;;;;;5113817;27;36749;-59
2022/10/03 12:30:02;;;;;;;6.65;0.90;;;17.20;99.90;;;;;;5115311;27;37637;-59
2022/10/03 12:32:39;;;;;;;4.45;1.00;;;17.10;99.90;;;;;;5114959;27;36197;-59
2022/10/03 12:35:19;;;;;;;4.07;0.90;;;17.10;99.90;;;;;;5115085;27;38117;-59
2022/10/03 12:38:06;;;;;;;7.32;1.27;;;17.10;99.90;;;;;;5115774;27;37568;-59
2022/10/03 12:40:40;;;;;;;9.25;1.38;;;17.10;99.90;;;;;;5114302;27;37210;-59
2022/10/03 12:43:23;;;;;;;6.20;1.45;;;17.10;99.90;;;;;;5115633;27;34648;-60
2022/10/03 12:45:59;;;;;;;8.65;1.38;;;17.20;99.90;;;;;;5115018;27;36282;-59
2022/10/03 12:48:46;;;;;;;9.55;1.50;;;17.20;99.90;;;;;;5114827;27;37927;-59
2022/10/03 12:51:39;;;;;;;4.85;1.08;;;17.20;99.90;;;;;;5115457;27;37720;-59
2022/10/03 12:54:21;;;;;;;8.82;1.52;;;17.20;99.90;;;;;;5114523;27;36613;-59
2022/10/03 12:56:58;;;;;;;10.83;1.40;;;17.20;99.90;;;;;;5115289;27;39646;-59
2022/10/03 12:59:37;;;;;;;4.70;1.10;;;17.10;99.90;;;;;;5116265;27;37549;-59
2022/10/03 13:02:28;;;;;;;6.20;1.30;;;17.10;99.90;;;;;;5114895;27;38956;-59
2022/10/03 13:05:29;;;;;;;6.00;1.10;;;17.00;99.90;;;;;;5113570;27;35238;-59
2022/10/03 13:08:02;;;;;;;6.78;1.30;;;17.00;99.90;;;;;;5102968;27;38652;-60
2022/10/03 13:10:40;;;;;;;7.13;1.20;;;17.00;99.90;;;;;;5115594;27;36775;-59
2022/10/03 13:13:24;;;;;;;7.85;1.15;;;16.90;99.90;;;;;;5115153;27;38339;-59
2022/10/03 13:16:19;;;;;;;6.63;1.55;;;16.90;99.90;;;;;;5114609;27;36557;-59
2022/10/03 13:18:53;;;;;;;7.32;1.27;;;17.00;99.90;;;;;;5113633;27;39001;-58
2022/10/03 13:21:33;;;;;;;6.80;1.25;;;17.00;99.90;;;;;;5113976;27;38380;-59
2022/10/03 13:24:05;;;;;;;5.13;1.10;;;17.00;99.90;;;;;;5114518;27;37668;-59
2022/10/03 13:26:52;;;;;;;7.35;1.30;;;16.90;99.90;;;;;;5113967;27;35393;-59
2022/10/03 13:29:24;;;;;;;7.32;1.40;;;16.90;99.90;;;;;;5108325;27;37518;-59
2022/10/03 13:32:06;;;;;;;5.35;1.00;;;16.80;99.90;;;;;;5103518;27;39887;-59
2022/10/03 13:34:40;;;;;;;6.18;1.52;;;16.80;99.90;;;;;;5106584;27;38331;-59
2022/10/03 13:37:15;;;;;;;6.68;1.20;;;16.80;99.90;;;;;;5105217;27;36148;-60
2022/10/03 13:39:50;;;;;;;8.45;1.30;;;16.70;99.90;;;;;;5107449;27;37841;-60
2022/10/03 13:42:24;;;;;;;9.02;1.10;;;16.70;99.90;;;;;;5106682;27;38975;-59
2022/10/03 13:44:56;;;;;;;5.90;1.20;;;16.70;99.90;;;;;;5106033;27;39430;-59
2022/10/03 13:47:45;;;;;;;5.32;1.33;;;16.80;99.90;;;;;;5105403;27;36770;-59
2022/10/03 13:50:19;;;;;;;8.38;1.08;;;16.70;99.90;;;;;;5105214;27;37531;-60
2022/10/03 13:52:52;;;;;;;5.22;0.75;;;16.70;99.90;;;;;;5104658;27;37625;-60
2022/10/03 13:55:29;;;;;;;7.55;1.30;;;16.70;99.90;;;;;;5106317;27;37425;-59
2022/10/03 13:58:16;;;;;;;8.45;1.13;;;16.70;99.90;;;;;;5106970;27;36725;-60
2022/10/03 14:01:10;;;;;;;3.22;0.65;;;16.60;99.90;;;;;;5107302;27;38654;-60
2022/10/03 14:03:47;;;;;;;6.88;1.17;;;16.70;99.90;;;;;;5107577;27;36109;-60
2022/10/03 14:06:24;;;;;;;8.70;1.58;;;16.60;99.90;;;;;;5104738;27;36156;-59
2022/10/03 14:09:27;;;;;;;11.82;1.90;;;16.60;99.90;;;;;;5106695;27;37346;-59
2022/10/03 14:12:03;;;;;;;5.13;1.20;;;16.60;99.90;;;;;;5102265;27;36433;-60
2022/10/03 14:14:57;;;;;;;4.68;1.00;;;16.50;99.90;;;;;;5105242;27;37835;-59
2022/10/03 14:17:32;;;;;;;5.63;0.93;;;16.60;99.90;;;;;;5106571;27;36151;-59
2022/10/03 14:20:16;;;;;;;5.38;0.98;;;16.50;99.90;;;;;;5106536;27;36636;-59
2022/10/03 14:22:59;;;;;;;5.97;1.13;;;16.50;99.90;;;;;;5106850;27;37614;-59
2022/10/03 14:25:32;;;;;;;6.45;1.35;;;16.50;99.90;;;;;;5106029;27;36450;-59
2022/10/03 14:28:07;;;;;;;7.10;1.33;;;16.50;99.90;;;;;;5105570;27;37526;-59
2022/10/03 14:30:46;;;;;;;6.43;1.08;;;16.50;99.90;;;;;;5104539;27;37435;-59
2022/10/03 14:33:23;;;;;;;7.57;1.05;;;16.50;99.90;;;;;;5105358;27;37842;-60
2022/10/03 14:36:09;;;;;;;11.38;1.63;;;16.50;99.90;;;;;;5106709;27;36606;-60
2022/10/03 14:38:59;;;;;;;4.00;0.60;;;16.40;99.90;;;;;;5104253;27;36452;-60
2022/10/03 14:41:38;;;;;;;5.63;1.20;;;16.40;99.90;;;;;;5106170;27;36140;-60
2022/10/03 14:44:10;;;;;;;8.30;0.98;;;16.40;99.90;;;;;;5105196;27;37918;-60